Time;durP1;ratioP1;P1;durP2;ratioP2;P2;SDS_P1;SDS_P2;PMS_P1;PMS_P2;Temp;Humidity;BMP_temperature;BMP_pressure;BME280_temperature;BME280_humidity;BME280_pressure;Samples;Min_cycle;Max_cycle;Signal;HPM_P1;HPM_P2
2023/05/13 00:01:52;;;;;;;7.13;4.07;;;10.30;99.90;;;;;;4409855;28;658738;-74
2023/05/13 00:04:39;;;;;;;7.40;3.83;;;10.10;99.90;;;;;;4438564;28;657679;-74
2023/05/13 00:07:28;;;;;;;8.53;4.37;;;10.00;99.90;;;;;;4420625;28;657012;-75
2023/05/13 00:10:15;;;;;;;7.47;4.33;;;10.00;99.90;;;;;;4426625;28;658272;-74
2023/05/13 00:13:02;;;;;;;16.07;5.53;;;9.80;99.90;;;;;;4437253;28;658796;-74
2023/05/13 00:15:50;;;;;;;31.57;8.60;;;9.80;99.90;;;;;;4426157;28;657435;-74
2023/05/13 00:18:38;;;;;;;6.50;4.27;;;9.60;99.90;;;;;;4437813;28;658228;-73
2023/05/13 00:21:25;;;;;;;7.57;4.00;;;9.50;99.90;;;;;;4428350;28;656840;-74
2023/05/13 00:24:14;;;;;;;9.60;4.20;;;9.30;99.90;;;;;;4443383;28;656415;-74
2023/05/13 00:27:01;;;;;;;13.20;4.43;;;9.20;99.90;;;;;;4418649;28;656533;-74
2023/05/13 00:29:48;;;;;;;11.47;5.23;;;9.10;99.90;;;;;;4441360;28;659014;-74
2023/05/13 00:32:36;;;;;;;59.27;17.70;;;9.00;99.90;;;;;;4421724;28;658032;-73
2023/05/13 00:35:23;;;;;;;47.17;12.83;;;9.00;99.90;;;;;;4433940;28;658355;-74
2023/05/13 00:38:10;;;;;;;118.68;27.13;;;8.90;99.90;;;;;;4386970;28;658735;-74
2023/05/13 00:40:59;;;;;;;204.97;41.73;;;8.80;99.90;;;;;;4407474;28;659862;-74
2023/05/13 00:43:46;;;;;;;103.07;25.83;;;8.70;99.90;;;;;;4371173;28;659966;-74
2023/05/13 00:46:34;;;;;;;123.70;30.17;;;8.50;99.90;;;;;;4437457;28;659963;-73
2023/05/13 00:49:21;;;;;;;175.57;38.83;;;8.40;99.90;;;;;;4420779;28;659944;-73
2023/05/13 00:52:08;;;;;;;139.80;33.30;;;8.30;99.90;;;;;;4430089;28;660035;-73
2023/05/13 00:54:55;;;;;;;152.50;34.67;;;8.30;99.90;;;;;;4418390;28;659986;-74
2023/05/13 00:57:44;;;;;;;131.63;33.47;;;8.10;99.90;;;;;;4441531;28;660794;-74
2023/05/13 01:00:31;;;;;;;107.23;26.03;;;8.00;99.90;;;;;;4420837;28;659682;-74
2023/05/13 01:03:20;;;;;;;110.83;27.40;;;7.90;99.90;;;;;;4437527;28;660752;-74
2023/05/13 01:06:10;;;;;;;81.03;21.37;;;7.80;99.90;;;;;;4416648;28;659978;-74
2023/05/13 01:09:02;;;;;;;119.33;33.23;;;7.70;99.90;;;;;;4410923;28;659225;-75
2023/05/13 01:11:49;;;;;;;52.93;16.07;;;7.60;99.90;;;;;;4414580;28;659901;-75
2023/05/13 01:14:40;;;;;;;45.87;14.30;;;7.50;99.90;;;;;;4422926;28;659307;-74
2023/05/13 01:17:31;;;;;;;61.03;17.10;;;7.40;99.90;;;;;;4420591;28;658989;-74
2023/05/13 01:20:19;;;;;;;58.17;17.02;;;7.40;99.90;;;;;;4415867;28;659473;-74
2023/05/13 01:23:07;;;;;;;51.33;16.40;;;7.30;99.90;;;;;;4418683;28;658995;-75
2023/05/13 01:25:54;;;;;;;49.57;15.60;;;7.20;99.90;;;;;;4436706;28;658414;-74
2023/05/13 01:28:42;;;;;;;45.00;15.67;;;7.10;99.90;;;;;;4417993;28;659113;-75
2023/05/13 01:31:29;;;;;;;30.30;9.50;;;7.00;99.90;;;;;;4445112;28;658494;-74
2023/05/13 01:34:16;;;;;;;23.90;9.10;;;6.90;99.90;;;;;;4421887;28;657737;-74
2023/05/13 01:37:03;;;;;;;24.10;9.10;;;6.90;99.90;;;;;;4441424;28;659017;-74
2023/05/13 01:39:52;;;;;;;27.50;8.60;;;6.90;99.90;;;;;;4424386;28;658033;-74
2023/05/13 01:42:39;;;;;;;22.95;8.20;;;6.80;99.90;;;;;;4432998;28;657485;-75
2023/05/13 01:45:28;;;;;;;18.13;7.27;;;6.70;1.00;;;;;;4414490;28;659063;-75
2023/05/13 01:48:17;;;;;;;14.40;6.47;;;6.70;1.00;;;;;;4419445;28;657078;-74
2023/05/13 01:51:05;;;;;;;17.63;7.20;;;6.60;1.00;;;;;;4448050;28;656392;-74
2023/05/13 01:53:52;;;;;;;16.25;6.25;;;6.60;1.00;;;;;;4423471;28;657284;-75
2023/05/13 01:56:41;;;;;;;21.80;7.20;;;6.50;1.00;;;;;;4440577;28;656572;-75
2023/05/13 01:59:28;;;;;;;14.80;7.23;;;6.50;1.00;;;;;;4417300;28;658173;-74
2023/05/13 02:02:16;;;;;;;16.83;7.40;;;6.50;1.00;;;;;;4419355;28;656512;-75
2023/05/13 02:05:03;;;;;;;21.93;8.13;;;6.40;1.00;;;;;;4445600;28;656590;-74
2023/05/13 02:07:50;;;;;;;17.00;7.57;;;6.40;1.00;;;;;;4420994;28;656636;-74
2023/05/13 02:10:38;;;;;;;21.57;7.87;;;6.40;1.00;;;;;;4443561;28;657679;-75
2023/05/13 02:13:27;;;;;;;27.40;9.10;;;6.40;1.00;;;;;;4433754;28;658591;-74
2023/05/13 02:16:16;;;;;;;18.10;7.47;;;6.50;1.00;;;;;;4441559;28;656734;-74
2023/05/13 02:19:03;;;;;;;21.87;8.63;;;6.50;1.00;;;;;;4414730;28;656462;-74
2023/05/13 02:21:51;;;;;;;33.00;10.03;;;6.40;1.00;;;;;;4388153;28;656830;-74
2023/05/13 02:24:39;;;;;;;30.97;10.07;;;6.30;1.00;;;;;;4409625;28;658078;-74
2023/05/13 02:27:26;;;;;;;39.77;12.07;;;6.30;1.00;;;;;;4385777;28;657284;-74
2023/05/13 02:30:15;;;;;;;67.07;16.80;;;6.30;1.00;;;;;;4406846;28;658811;-74
2023/05/13 02:33:02;;;;;;;52.03;14.47;;;6.30;1.00;;;;;;4378124;28;657839;-74
2023/05/13 02:35:49;;;;;;;34.47;11.20;;;6.30;1.00;;;;;;4401101;28;657712;-74
2023/05/13 02:38:37;;;;;;;34.23;10.67;;;6.40;1.00;;;;;;4328332;28;657952;-75
2023/05/13 02:41:24;;;;;;;25.60;8.47;;;6.30;1.00;;;;;;4321122;28;657512;-75
2023/05/13 02:44:11;;;;;;;26.47;8.00;;;6.20;1.00;;;;;;4275473;28;657051;-74
2023/05/13 02:47:00;;;;;;;16.37;6.83;;;6.30;1.00;;;;;;4377804;28;657638;-74
2023/05/13 02:49:47;;;;;;;13.97;6.33;;;6.30;1.00;;;;;;4377951;28;659017;-75
2023/05/13 02:52:35;;;;;;;18.03;7.47;;;6.40;1.00;;;;;;4401326;28;656700;-74
2023/05/13 02:55:22;;;;;;;15.00;6.53;;;6.50;1.00;;;;;;4379855;28;657606;-74
2023/05/13 02:58:09;;;;;;;16.63;6.70;;;6.60;1.00;;;;;;4406246;28;656419;-74
2023/05/13 03:00:56;;;;;;;26.50;8.93;;;6.70;1.00;;;;;;4378868;28;656530;-74
2023/05/13 03:03:45;;;;;;;32.30;11.23;;;6.80;1.00;;;;;;4402220;28;656327;-74
2023/05/13 03:06:32;;;;;;;30.40;10.60;;;7.00;1.00;;;;;;4375875;28;658386;-74
2023/05/13 03:09:19;;;;;;;20.03;8.13;;;7.10;1.00;;;;;;4400828;28;658124;-74
2023/05/13 03:12:07;;;;;;;23.83;9.33;;;7.10;1.00;;;;;;4385124;28;657002;-74
2023/05/13 03:14:54;;;;;;;135.18;21.67;;;7.20;1.00;;;;;;4406276;28;657271;-74
2023/05/13 03:17:43;;;;;;;154.77;25.60;;;7.30;1.00;;;;;;4377943;28;658811;-74
2023/05/13 03:20:32;;;;;;;171.17;29.50;;;7.40;1.00;;;;;;4418484;28;659554;-74
2023/05/13 03:23:19;;;;;;;192.03;35.47;;;7.50;1.00;;;;;;4430031;28;658739;-74
2023/05/13 03:26:06;;;;;;;51.40;13.67;;;7.60;1.00;;;;;;4411916;28;658988;-74
2023/05/13 03:28:54;;;;;;;32.13;10.47;;;7.60;1.00;;;;;;4438605;28;657829;-73
2023/05/13 03:31:41;;;;;;;38.00;9.47;;;7.60;1.00;;;;;;4419292;28;658198;-74
2023/05/13 03:34:28;;;;;;;36.47;11.70;;;7.70;1.00;;;;;;4444991;28;657557;-73
2023/05/13 03:37:17;;;;;;;39.67;11.70;;;7.80;1.00;;;;;;4420311;28;657985;-74
2023/05/13 03:40:05;;;;;;;48.17;12.80;;;7.90;1.00;;;;;;4436933;28;657621;-74
2023/05/13 03:42:52;;;;;;;39.50;13.80;;;8.00;1.00;;;;;;4412277;28;658570;-73
2023/05/13 03:45:39;;;;;;;34.20;11.73;;;8.20;1.00;;;;;;4442450;28;658468;-74
2023/05/13 03:48:26;;;;;;;25.00;9.07;;;8.40;99.90;;;;;;4418937;28;658211;-74
2023/05/13 03:51:13;;;;;;;24.80;10.70;;;8.50;99.90;;;;;;4437122;28;657649;-74
2023/05/13 03:54:02;;;;;;;21.57;9.70;;;8.70;99.90;;;;;;4418728;28;658565;-73
2023/05/13 03:56:49;;;;;;;14.68;7.53;;;8.80;99.90;;;;;;4428181;28;657378;-73
2023/05/13 03:59:36;;;;;;;19.50;7.57;;;9.00;99.90;;;;;;4416111;28;658226;-73
2023/05/13 04:02:24;;;;;;;17.83;9.83;;;9.10;99.90;;;;;;4437887;28;657707;-73
2023/05/13 04:05:12;;;;;;;19.03;10.20;;;9.30;99.90;;;;;;4419549;28;658159;-74
2023/05/13 04:07:59;;;;;;;16.13;8.17;;;9.60;99.90;;;;;;4435690;28;659515;-74
2023/05/13 04:10:48;;;;;;;13.83;6.73;;;9.80;99.90;;;;;;4418441;28;657353;-74
2023/05/13 04:13:35;;;;;;;13.43;6.77;;;9.90;99.90;;;;;;4412856;28;657567;-73
2023/05/13 04:16:24;;;;;;;9.77;5.40;;;10.10;99.90;;;;;;4438616;28;658772;-73
2023/05/13 04:19:11;;;;;;;14.47;5.20;;;10.30;99.90;;;;;;4414803;28;657901;-74
2023/05/13 04:21:58;;;;;;;11.63;5.43;;;10.50;99.90;;;;;;4435767;28;659644;-74
2023/05/13 04:24:46;;;;;;;9.00;5.03;;;10.70;99.90;;;;;;4418128;28;658739;-74
2023/05/13 04:27:34;;;;;;;10.23;4.87;;;10.80;99.90;;;;;;4441719;28;658013;-74
2023/05/13 04:30:21;;;;;;;6.00;4.23;;;11.00;99.90;;;;;;4406509;28;658813;-74
2023/05/13 04:33:09;;;;;;;6.70;4.50;;;11.10;99.90;;;;;;4438257;28;658827;-74
2023/05/13 04:35:56;;;;;;;7.43;4.50;;;11.30;99.90;;;;;;4417948;28;657596;-74
2023/05/13 04:38:43;;;;;;;9.47;4.40;;;11.40;99.90;;;;;;4438159;28;658623;-73
2023/05/13 04:41:30;;;;;;;12.70;5.97;;;11.60;99.90;;;;;;4420420;28;657967;-74
2023/05/13 04:44:19;;;;;;;8.70;4.30;;;11.60;99.90;;;;;;4438271;28;659862;-74
2023/05/13 04:47:07;;;;;;;7.30;4.20;;;11.70;99.90;;;;;;4413768;28;658125;-74
2023/05/13 04:49:54;;;;;;;9.20;5.93;;;11.80;99.90;;;;;;4435997;28;657629;-73
2023/05/13 04:52:43;;;;;;;14.00;4.90;;;11.90;99.90;;;;;;4413893;28;658503;-74
2023/05/13 04:55:30;;;;;;;8.18;3.70;;;12.10;99.90;;;;;;4416476;28;660678;-74
2023/05/13 04:58:17;;;;;;;9.53;5.07;;;12.20;99.90;;;;;;4436701;28;659212;-74
2023/05/13 05:01:07;;;;;;;9.87;4.00;;;12.20;99.90;;;;;;4436475;28;657362;-73
2023/05/13 05:03:54;;;;;;;7.30;4.70;;;12.30;99.90;;;;;;4437923;28;657534;-74
2023/05/13 05:06:41;;;;;;;8.10;5.33;;;12.50;99.90;;;;;;4416704;28;657270;-74
2023/05/13 05:09:29;;;;;;;9.23;5.17;;;12.50;99.90;;;;;;4437969;28;657913;-73
2023/05/13 05:12:16;;;;;;;9.80;5.30;;;12.60;99.90;;;;;;4411929;28;658005;-74
2023/05/13 05:15:04;;;;;;;11.73;6.20;;;12.70;99.90;;;;;;4433358;28;659239;-74
2023/05/13 05:17:52;;;;;;;11.50;5.30;;;12.60;99.90;;;;;;4419320;28;659070;-74
2023/05/13 05:20:39;;;;;;;83.53;17.13;;;12.70;99.90;;;;;;4440789;28;659785;-74
2023/05/13 05:23:27;;;;;;;23.03;9.27;;;12.80;99.90;;;;;;4419210;28;661209;-75
2023/05/13 05:26:14;;;;;;;7.83;3.93;;;12.90;99.90;;;;;;4439609;28;658383;-74
2023/05/13 05:29:01;;;;;;;13.43;4.40;;;13.10;99.90;;;;;;4408300;28;658188;-74
2023/05/13 05:31:48;;;;;;;6.90;4.13;;;13.10;99.90;;;;;;4438676;28;659150;-74
2023/05/13 05:34:37;;;;;;;7.57;3.60;;;13.30;99.90;;;;;;4419375;28;657762;-73
2023/05/13 05:37:24;;;;;;;9.87;3.57;;;13.40;99.90;;;;;;4440771;28;657794;-71
2023/05/13 05:40:12;;;;;;;7.60;3.43;;;13.50;99.90;;;;;;4421636;28;657441;-71
2023/05/13 05:42:59;;;;;;;6.33;3.47;;;13.60;99.90;;;;;;4443278;28;657430;-71
2023/05/13 05:45:46;;;;;;;4.63;3.37;;;13.70;99.90;;;;;;4413460;28;657586;-71
2023/05/13 05:48:33;;;;;;;5.27;3.50;;;13.50;99.90;;;;;;4440620;28;657679;-71
2023/05/13 05:51:22;;;;;;;7.23;3.03;;;13.60;99.90;;;;;;4414304;28;657480;-73
2023/05/13 05:54:09;;;;;;;14.80;6.03;;;13.60;99.90;;;;;;4442147;28;657506;-72
2023/05/13 05:56:56;;;;;;;6.87;4.33;;;13.70;99.90;;;;;;4416354;28;659253;-74
2023/05/13 05:59:44;;;;;;;11.27;4.63;;;13.80;99.90;;;;;;4445146;28;658268;-74
2023/05/13 06:02:31;;;;;;;7.97;3.37;;;13.80;99.90;;;;;;4423144;28;660327;-75
2023/05/13 06:05:18;;;;;;;7.10;3.80;;;13.90;99.90;;;;;;4446480;28;657983;-74
2023/05/13 06:08:07;;;;;;;6.37;3.90;;;14.00;99.90;;;;;;4422846;28;657747;-73
2023/05/13 06:10:54;;;;;;;5.43;3.40;;;14.10;99.90;;;;;;4441509;28;657741;-73
2023/05/13 06:13:42;;;;;;;6.37;3.77;;;14.20;99.90;;;;;;4414323;28;657819;-74
2023/05/13 06:16:30;;;;;;;4.60;3.00;;;14.30;99.90;;;;;;4445730;28;657808;-73
2023/05/13 06:19:17;;;;;;;10.77;4.23;;;14.40;99.90;;;;;;4414549;28;657293;-74
2023/05/13 06:22:04;;;;;;;9.40;4.00;;;14.50;99.90;;;;;;4433826;28;659577;-74
2023/05/13 06:24:53;;;;;;;9.73;3.73;;;14.60;99.90;;;;;;4422545;28;657930;-74
2023/05/13 06:27:40;;;;;;;6.13;3.27;;;14.80;99.90;;;;;;4422121;28;658004;-73
2023/05/13 06:30:27;;;;;;;7.67;4.23;;;14.80;99.90;;;;;;4433157;28;658277;-73
2023/05/13 06:33:18;;;;;;;10.70;3.93;;;14.90;99.90;;;;;;4435896;28;657583;-73
2023/05/13 06:36:10;;;;;;;9.03;4.10;;;15.00;99.90;;;;;;4425924;28;658528;-73
2023/05/13 06:38:58;;;;;;;5.27;2.83;;;15.10;99.90;;;;;;4384727;28;657825;-72
2023/05/13 06:41:47;;;;;;;6.63;2.60;;;15.20;99.90;;;;;;4377082;28;657201;-71
2023/05/13 06:44:34;;;;;;;4.03;2.77;;;15.30;99.90;;;;;;4376546;28;657231;-72
2023/05/13 06:47:21;;;;;;;6.97;3.53;;;15.40;99.90;;;;;;4378533;28;657583;-74
2023/05/13 06:50:09;;;;;;;18.10;6.50;;;15.30;99.90;;;;;;4430103;28;658134;-74
2023/05/13 06:52:57;;;;;;;8.17;2.63;;;15.40;99.90;;;;;;4417383;28;658868;-74
2023/05/13 06:55:44;;;;;;;6.78;2.80;;;15.40;99.90;;;;;;4442399;28;657889;-74
2023/05/13 06:58:33;;;;;;;7.37;2.73;;;15.50;99.90;;;;;;4423439;28;658772;-74
2023/05/13 07:01:20;;;;;;;14.73;4.10;;;15.40;99.90;;;;;;4414198;28;657715;-73
2023/05/13 07:04:07;;;;;;;16.47;4.70;;;15.60;99.90;;;;;;4436616;28;660294;-72
2023/05/13 07:06:56;;;;;;;4.17;2.63;;;15.80;99.90;;;;;;4431457;28;658594;-72
2023/05/13 07:09:43;;;;;;;19.27;6.30;;;16.00;99.90;;;;;;4432528;28;658693;-74
2023/05/13 07:12:30;;;;;;;22.37;7.73;;;16.00;99.90;;;;;;4419008;28;659470;-73
2023/05/13 07:15:19;;;;;;;4.17;2.50;;;15.90;99.90;;;;;;4436058;28;658766;-74
2023/05/13 07:18:06;;;;;;;4.82;2.70;;;16.00;99.90;;;;;;4426996;28;657969;-74
2023/05/13 07:20:55;;;;;;;4.90;2.57;;;16.10;99.90;;;;;;4445666;28;658521;-74
2023/05/13 07:23:42;;;;;;;7.77;3.87;;;16.00;99.90;;;;;;4410304;28;657964;-74
2023/05/13 07:26:29;;;;;;;13.07;5.00;;;16.00;99.90;;;;;;4432040;28;657885;-74
2023/05/13 07:29:16;;;;;;;13.67;5.10;;;16.00;99.90;;;;;;4408050;28;658883;-73
2023/05/13 07:32:06;;;;;;;16.67;6.10;;;16.10;99.90;;;;;;4437886;28;659330;-74
2023/05/13 07:34:53;;;;;;;16.57;6.43;;;16.30;99.90;;;;;;4403913;28;659602;-75
2023/05/13 07:37:40;;;;;;;10.33;4.03;;;16.30;99.90;;;;;;4422390;28;658594;-74
2023/05/13 07:40:28;;;;;;;6.07;3.33;;;16.40;99.90;;;;;;4436368;28;658416;-73
2023/05/13 07:43:16;;;;;;;7.23;3.17;;;16.50;99.90;;;;;;4421091;28;657935;-72
2023/05/13 07:46:04;;;;;;;2.93;2.20;;;16.60;99.90;;;;;;4431370;28;658402;-74
2023/05/13 07:48:52;;;;;;;6.77;2.53;;;16.70;99.90;;;;;;4421593;28;658383;-74
2023/05/13 07:51:40;;;;;;;9.47;2.50;;;17.00;99.90;;;;;;4437723;28;657946;-73
2023/05/13 07:54:27;;;;;;;8.60;4.23;;;17.10;99.90;;;;;;4409032;28;658810;-75
2023/05/13 07:57:14;;;;;;;4.20;2.60;;;17.10;99.90;;;;;;4445580;28;657880;-74
2023/05/13 08:00:01;;;;;;;12.67;3.83;;;17.20;99.90;;;;;;4410975;28;657501;-74
2023/05/13 08:02:48;;;;;;;5.40;2.67;;;17.20;99.90;;;;;;4445923;28;659933;-72
2023/05/13 08:05:37;;;;;;;6.70;2.80;;;17.50;99.90;;;;;;4420823;28;658387;-72
2023/05/13 08:08:24;;;;;;;4.87;2.70;;;17.50;99.90;;;;;;4443559;28;658380;-74
2023/05/13 08:11:12;;;;;;;8.83;2.60;;;17.30;99.90;;;;;;4415616;28;657857;-74
2023/05/13 08:13:59;;;;;;;9.57;3.20;;;17.60;99.90;;;;;;4436327;28;657982;-73
2023/05/13 08:16:46;;;;;;;6.33;2.83;;;17.80;99.90;;;;;;4412628;28;658185;-74
2023/05/13 08:19:34;;;;;;;4.07;2.80;;;17.90;99.90;;;;;;4435399;28;658254;-74
2023/05/13 08:22:22;;;;;;;5.63;3.03;;;17.80;99.90;;;;;;4415338;28;657870;-73
2023/05/13 08:25:11;;;;;;;13.30;5.47;;;17.70;99.90;;;;;;4438390;28;657653;-74
2023/05/13 08:27:58;;;;;;;7.03;3.40;;;18.00;99.90;;;;;;4418582;28;659450;-74
2023/05/13 08:30:45;;;;;;;17.20;5.17;;;18.10;99.90;;;;;;4418943;28;657475;-73
2023/05/13 08:33:33;;;;;;;15.97;4.70;;;18.00;99.90;;;;;;4441004;28;658983;-74
2023/05/13 08:36:20;;;;;;;5.97;3.27;;;18.30;99.90;;;;;;4426094;28;659465;-73
2023/05/13 08:39:09;;;;;;;5.70;2.70;;;18.60;99.90;;;;;;4443523;28;658533;-74
2023/05/13 08:41:56;;;;;;;7.83;3.67;;;18.80;99.90;;;;;;4425468;28;657678;-74
2023/05/13 08:44:43;;;;;;;8.67;3.13;;;18.80;99.90;;;;;;4436822;28;657669;-74
2023/05/13 08:47:32;;;;;;;8.97;4.07;;;18.70;99.90;;;;;;4414954;28;657886;-74
2023/05/13 08:50:21;;;;;;;5.07;2.90;;;18.80;99.90;;;;;;4433125;28;657328;-74
2023/05/13 08:53:08;;;;;;;5.40;3.03;;;18.50;99.90;;;;;;4422499;28;658860;-74
2023/05/13 08:55:57;;;;;;;8.85;4.03;;;18.10;99.90;;;;;;4429144;28;657951;-72
2023/05/13 08:58:44;;;;;;;5.63;3.03;;;18.20;99.90;;;;;;4449161;28;658082;-73
2023/05/13 09:01:31;;;;;;;5.60;2.73;;;18.30;99.90;;;;;;4425639;28;657980;-73
2023/05/13 09:04:19;;;;;;;9.17;3.13;;;18.30;99.90;;;;;;4436764;28;658110;-73
2023/05/13 09:07:06;;;;;;;4.67;2.93;;;18.30;99.90;;;;;;4429234;28;657532;-73
2023/05/13 09:09:53;;;;;;;6.93;2.77;;;18.20;99.90;;;;;;4446704;28;658206;-73
2023/05/13 09:12:49;;;;;;;6.97;2.97;;;18.40;99.90;;;;;;4425658;28;657456;-73
2023/05/13 09:15:36;;;;;;;4.23;2.37;;;18.50;99.90;;;;;;4398450;28;658376;-74
2023/05/13 09:18:29;;;;;;;3.38;2.55;;;18.50;99.90;;;;;;4436177;28;658791;-74
2023/05/13 09:21:23;;;;;;;8.03;3.10;;;18.50;99.90;;;;;;4389278;28;658936;-74
2023/05/13 09:24:12;;;;;;;8.90;3.70;;;18.70;99.90;;;;;;4397445;28;657964;-72
2023/05/13 09:26:59;;;;;;;9.87;4.13;;;19.00;99.90;;;;;;4442003;28;657630;-74
2023/05/13 09:29:48;;;;;;;9.63;4.07;;;19.30;99.90;;;;;;4412953;28;658208;-75
2023/05/13 09:32:35;;;;;;;5.20;2.57;;;19.50;99.90;;;;;;4422080;28;657543;-73
2023/05/13 09:35:22;;;;;;;9.90;3.93;;;19.90;99.90;;;;;;4437990;28;658535;-73
2023/05/13 09:38:14;;;;;;;6.03;2.80;;;20.20;99.90;;;;;;4429252;28;658729;-72
2023/05/13 09:41:03;;;;;;;8.80;4.00;;;20.40;99.90;;;;;;4417980;28;657455;-74
2023/05/13 09:43:50;;;;;;;7.30;2.73;;;20.60;99.90;;;;;;4419356;28;657750;-73
2023/05/13 09:46:39;;;;;;;5.40;2.50;;;20.30;99.90;;;;;;4450849;28;658179;-75
2023/05/13 09:49:26;;;;;;;5.60;2.30;;;20.20;99.90;;;;;;4422903;28;657858;-73
2023/05/13 09:52:16;;;;;;;8.57;2.33;;;20.30;99.90;;;;;;4444771;28;658818;-75
2023/05/13 09:55:04;;;;;;;12.43;2.40;;;20.20;99.90;;;;;;4416059;28;658840;-74
2023/05/13 09:57:51;;;;;;;7.00;2.80;;;20.30;99.90;;;;;;4417991;28;658788;-74
2023/05/13 10:00:39;;;;;;;10.83;2.80;;;19.80;99.90;;;;;;4428377;28;659274;-74
2023/05/13 10:03:27;;;;;;;4.37;2.20;;;20.10;99.90;;;;;;4419998;28;658542;-74
2023/05/13 10:06:16;;;;;;;4.43;2.33;;;20.30;99.90;;;;;;4430185;28;658265;-72
2023/05/13 10:09:04;;;;;;;7.37;2.30;;;20.50;99.90;;;;;;4439497;28;658774;-74
2023/05/13 10:11:51;;;;;;;10.83;2.80;;;20.30;99.90;;;;;;4415429;28;657630;-74
2023/05/13 10:14:38;;;;;;;2.53;2.03;;;20.60;99.90;;;;;;4432341;28;659494;-74
2023/05/13 10:17:25;;;;;;;10.00;2.50;;;20.50;99.90;;;;;;4421642;28;657471;-73
2023/05/13 10:20:14;;;;;;;7.63;2.80;;;20.10;99.90;;;;;;4432470;28;659980;-74
2023/05/13 10:23:01;;;;;;;6.30;2.27;;;20.10;99.90;;;;;;4416068;28;657640;-74
2023/05/13 10:25:48;;;;;;;17.97;2.40;;;20.40;99.90;;;;;;4444048;28;658962;-74
2023/05/13 10:28:36;;;;;;;12.30;2.30;;;20.50;99.90;;;;;;4407347;28;659080;-74
2023/05/13 10:31:23;;;;;;;6.00;2.20;;;20.70;99.90;;;;;;4433234;28;659358;-74
2023/05/13 10:34:10;;;;;;;4.30;2.30;;;20.80;99.90;;;;;;4416676;28;657574;-73
2023/05/13 10:37:07;;;;;;;5.60;2.50;;;21.30;99.90;;;;;;4432336;28;658856;-75
2023/05/13 10:40:13;;;;;;;6.27;2.37;;;21.30;99.90;;;;;;4421981;28;658289;-73
2023/05/13 10:43:09;;;;;;;11.73;2.70;;;21.60;99.90;;;;;;4391730;28;657718;-72
2023/05/13 10:45:57;;;;;;;7.63;2.70;;;21.30;99.90;;;;;;4420392;28;658808;-74
2023/05/13 10:48:47;;;;;;;7.10;3.00;;;20.80;99.90;;;;;;4434870;28;657690;-72
2023/05/13 10:51:34;;;;;;;5.07;2.57;;;20.40;99.90;;;;;;4434483;28;657931;-72
2023/05/13 10:54:24;;;;;;;4.73;2.80;;;20.10;99.90;;;;;;4415379;28;657889;-74
2023/05/13 10:57:11;;;;;;;7.30;3.23;;;20.30;99.90;;;;;;4418950;28;658174;-73
2023/05/13 11:00:15;;;;;;;7.73;2.77;;;20.40;99.90;;;;;;4436805;28;658219;-74
2023/05/13 11:03:27;;;;;;;4.93;2.87;;;21.00;99.90;;;;;;4392663;28;658801;-73
2023/05/13 11:06:15;;;;;;;8.80;3.27;;;20.90;99.90;;;;;;4412466;28;658088;-74
2023/05/13 11:09:05;;;;;;;7.10;2.73;;;21.50;99.90;;;;;;4408840;28;657940;-73
2023/05/13 11:11:54;;;;;;;8.37;3.20;;;21.50;99.90;;;;;;4410893;28;657969;-74
2023/05/13 11:14:42;;;;;;;8.30;3.17;;;21.60;99.90;;;;;;4418564;28;658179;-75
2023/05/13 11:17:30;;;;;;;10.67;4.60;;;21.30;99.90;;;;;;4436352;28;657479;-74
2023/05/13 11:20:18;;;;;;;10.60;4.63;;;21.20;99.90;;;;;;4410322;28;660136;-74
2023/05/13 11:23:07;;;;;;;12.00;4.17;;;21.20;99.90;;;;;;4422824;28;658849;-74
2023/05/13 11:26:10;;;;;;;9.53;3.30;;;21.30;99.90;;;;;;4430047;28;659088;-74
2023/05/13 11:28:59;;;;;;;6.60;3.80;;;20.90;99.90;;;;;;4393887;28;657681;-74
2023/05/13 11:31:48;;;;;;;9.77;3.87;;;21.00;99.90;;;;;;4407976;28;657673;-74
2023/05/13 11:34:35;;;;;;;10.40;4.57;;;20.90;99.90;;;;;;4417657;28;657181;-72
2023/05/13 11:37:23;;;;;;;26.37;8.47;;;20.50;99.90;;;;;;4434246;28;660484;-74
2023/05/13 11:40:11;;;;;;;8.60;4.03;;;20.40;99.90;;;;;;4424481;28;658420;-73
2023/05/13 11:42:58;;;;;;;7.73;3.80;;;20.70;99.90;;;;;;4437488;28;658995;-74
2023/05/13 11:45:47;;;;;;;9.43;3.63;;;20.50;99.90;;;;;;4416610;28;657771;-74
2023/05/13 11:48:35;;;;;;;11.83;4.03;;;20.70;99.90;;;;;;4434441;28;657312;-73
2023/05/13 11:51:24;;;;;;;4.93;3.07;;;20.80;99.90;;;;;;4414101;28;659352;-73
2023/05/13 11:54:11;;;;;;;5.27;3.10;;;21.00;99.90;;;;;;4414901;28;657444;-73
2023/05/13 11:56:58;;;;;;;7.30;3.10;;;21.20;99.90;;;;;;4438727;28;657858;-74
2023/05/13 11:59:53;;;;;;;5.10;3.03;;;21.40;99.90;;;;;;4418363;28;658501;-72
2023/05/13 12:02:44;;;;;;;7.43;3.27;;;21.30;99.90;;;;;;4397780;28;658165;-72
2023/05/13 12:05:31;;;;;;;8.67;2.93;;;21.50;99.90;;;;;;4418914;28;657672;-72
2023/05/13 12:08:18;;;;;;;7.70;2.87;;;22.00;99.90;;;;;;4433633;28;658819;-72
2023/05/13 12:11:08;;;;;;;4.07;2.63;;;22.10;99.90;;;;;;4418289;28;657421;-72
2023/05/13 12:13:56;;;;;;;9.50;2.77;;;22.20;99.90;;;;;;4418817;28;657761;-73
2023/05/13 12:16:43;;;;;;;10.50;3.37;;;22.00;99.90;;;;;;4438877;28;658099;-71
2023/05/13 12:19:32;;;;;;;8.07;2.73;;;21.90;99.90;;;;;;4417678;28;658656;-71
2023/05/13 12:22:21;;;;;;;8.53;3.00;;;21.30;99.90;;;;;;4433469;28;658627;-72
2023/05/13 12:25:37;;;;;;;4.80;2.77;;;20.60;99.90;;;;;;4417910;28;658391;-71
2023/05/13 12:28:25;;;;;;;9.23;3.90;;;20.30;99.90;;;;;;4421580;28;657619;-72
2023/05/13 12:31:16;;;;;;;6.33;2.93;;;20.10;99.90;;;;;;4417429;28;658851;-72
2023/05/13 12:34:05;;;;;;;9.00;4.10;;;19.90;99.90;;;;;;4383584;28;657889;-72
2023/05/13 12:36:54;;;;;;;6.57;2.80;;;19.90;99.90;;;;;;4310956;28;658624;-71
2023/05/13 12:39:41;;;;;;;5.37;2.93;;;19.90;99.90;;;;;;4301277;28;658477;-71
2023/05/13 12:42:28;;;;;;;4.67;2.40;;;19.60;99.90;;;;;;4365162;28;659126;-71
2023/05/13 12:45:16;;;;;;;14.87;2.90;;;19.50;99.90;;;;;;4419310;28;657665;-71
2023/05/13 12:48:03;;;;;;;9.03;3.17;;;19.20;99.90;;;;;;4444191;28;658956;-72
2023/05/13 12:50:51;;;;;;;7.47;2.40;;;19.00;99.90;;;;;;4424303;28;657863;-71
2023/05/13 12:53:39;;;;;;;7.87;2.40;;;18.90;99.90;;;;;;4440202;28;658823;-71
2023/05/13 12:56:27;;;;;;;8.00;2.10;;;18.80;99.90;;;;;;4417245;28;658436;-71
2023/05/13 12:59:15;;;;;;;10.50;2.10;;;18.50;99.90;;;;;;4436208;28;658085;-71
2023/05/13 13:02:02;;;;;;;7.73;2.90;;;18.60;99.90;;;;;;4416099;28;659257;-71
2023/05/13 13:04:50;;;;;;;6.50;2.40;;;18.60;99.90;;;;;;4441898;28;657785;-71
2023/05/13 13:07:37;;;;;;;6.00;2.00;;;18.50;99.90;;;;;;4412104;28;658163;-71
2023/05/13 13:10:26;;;;;;;3.63;2.03;;;18.60;99.90;;;;;;4439245;28;657434;-71
2023/05/13 13:13:14;;;;;;;4.83;2.60;;;18.50;99.90;;;;;;4438448;28;657775;-71
2023/05/13 13:16:01;;;;;;;14.33;5.03;;;18.50;99.90;;;;;;4421365;28;657847;-70
2023/05/13 13:18:49;;;;;;;6.60;3.47;;;18.40;99.90;;;;;;4432142;28;659311;-72
2023/05/13 13:21:36;;;;;;;11.67;2.53;;;18.50;99.90;;;;;;4419724;28;658142;-72
2023/05/13 13:24:23;;;;;;;4.37;2.30;;;18.40;99.90;;;;;;4440024;28;658537;-70
2023/05/13 13:27:12;;;;;;;8.30;2.30;;;18.30;99.90;;;;;;4423850;28;658459;-73
2023/05/13 13:29:59;;;;;;;12.60;4.27;;;18.20;99.90;;;;;;4440746;28;657629;-72
2023/05/13 13:32:46;;;;;;;9.90;3.85;;;18.10;99.90;;;;;;4416491;28;659237;-73
2023/05/13 13:35:33;;;;;;;14.80;5.50;;;18.10;99.90;;;;;;4432656;28;658862;-73
2023/05/13 13:38:20;;;;;;;10.17;4.00;;;18.20;99.90;;;;;;4417841;28;659082;-70
2023/05/13 13:41:07;;;;;;;15.43;3.77;;;18.20;99.90;;;;;;4438546;28;659752;-72
2023/05/13 13:43:57;;;;;;;11.73;3.90;;;18.10;99.90;;;;;;4436163;28;658657;-70
2023/05/13 13:46:44;;;;;;;5.77;2.50;;;18.40;99.90;;;;;;4435485;28;659337;-71
2023/05/13 13:49:31;;;;;;;8.93;3.40;;;18.50;99.90;;;;;;4421070;28;658515;-71
2023/05/13 13:52:18;;;;;;;7.67;2.60;;;18.70;99.90;;;;;;4448371;28;657910;-71
2023/05/13 13:55:06;;;;;;;9.90;3.30;;;18.70;99.90;;;;;;4417805;28;658572;-72
2023/05/13 13:57:54;;;;;;;10.20;4.37;;;18.80;99.90;;;;;;4442232;28;657623;-72
2023/05/13 14:00:42;;;;;;;7.40;3.30;;;19.00;99.90;;;;;;4419650;28;659102;-72
2023/05/13 14:03:29;;;;;;;16.20;5.30;;;19.20;99.90;;;;;;4440138;28;657377;-73
2023/05/13 14:06:17;;;;;;;9.63;2.90;;;18.70;99.90;;;;;;4420548;28;659009;-72
2023/05/13 14:09:04;;;;;;;10.47;2.67;;;18.70;99.90;;;;;;4431316;28;658452;-71
2023/05/13 14:11:51;;;;;;;3.93;2.23;;;18.70;99.90;;;;;;4422178;28;658740;-70
2023/05/13 14:14:39;;;;;;;3.90;1.83;;;18.60;99.90;;;;;;4439661;28;658114;-71
2023/05/13 14:17:27;;;;;;;4.67;2.50;;;18.50;99.90;;;;;;4420683;28;657363;-70
2023/05/13 14:20:14;;;;;;;13.17;2.73;;;18.50;99.90;;;;;;4442259;28;658178;-71
2023/05/13 14:23:02;;;;;;;5.73;2.40;;;18.40;99.90;;;;;;4421957;28;658677;-71